Time;durP1;ratioP1;P1;durP2;ratioP2;P2;SDS_P1;SDS_P2;PMS_P1;PMS_P2;Temp;Humidity;BMP_temperature;BMP_pressure;BME280_temperature;BME280_humidity;BME280_pressure;Samples;Min_cycle;Max_cycle;Signal;HPM_P1;HPM_P2
2021/01/11 00:00:14;;;;;;;51.03;32.45;;;103.00;2022.40;;;;;;4957678;28;20081;-71
2021/01/11 00:02:40;;;;;;;47.47;29.25;;;102.80;2048.00;;;;;;4957793;28;20486;-70
2021/01/11 00:05:07;;;;;;;92.93;69.32;;;103.10;1996.80;;;;;;4957627;28;20023;-70
2021/01/11 00:07:33;;;;;;;91.00;65.28;;;103.00;2022.40;;;;;;4957691;28;20035;-69
2021/01/11 00:09:58;;;;;;;73.75;50.83;;;103.20;1996.80;;;;;;4956138;29;20482;-70
2021/01/11 00:12:24;;;;;;;54.97;35.92;;;103.00;2022.40;;;;;;4957409;28;20031;-70
2021/01/11 00:14:50;;;;;;;73.38;50.50;;;103.20;1971.20;;;;;;4957457;28;20019;-70
2021/01/11 00:17:16;;;;;;;65.90;46.00;;;103.20;1971.20;;;;;;4949411;28;20464;-71
2021/01/11 00:19:41;;;;;;;49.75;36.00;;;103.30;1945.60;;;;;;4938382;29;20604;-70
2021/01/11 00:22:07;;;;;;;49.78;36.63;;;102.70;2073.60;;;;;;4938025;29;20024;-68
2021/01/11 00:24:33;;;;;;;69.70;46.28;;;102.50;2099.20;;;;;;4938131;29;20090;-70
2021/01/11 00:26:59;;;;;;;50.35;34.92;;;102.60;2073.60;;;;;;4937833;29;20032;-65
2021/01/11 00:29:25;;;;;;;47.10;28.92;;;102.90;1996.80;;;;;;4938163;29;20079;-68
2021/01/11 00:31:51;;;;;;;42.55;29.10;;;102.80;2022.40;;;;;;4938097;29;20032;-69
2021/01/11 00:34:17;;;;;;;46.15;26.83;;;102.60;2073.60;;;;;;4938173;29;20530;-69
2021/01/11 00:36:47;;;;;;;42.22;27.23;;;102.40;2124.80;;;;;;4937912;29;20027;-68
2021/01/11 00:39:13;;;;;;;53.15;29.60;;;77.70;2150.40;;;;;;4937885;29;20087;-68
2021/01/11 00:41:38;;;;;;;79.05;47.22;;;77.60;2176.00;;;;;;4937891;29;20024;-69
2021/01/11 00:44:04;;;;;;;52.38;30.60;;;102.60;2099.20;;;;;;4937761;29;20101;-68
2021/01/11 00:46:30;;;;;;;39.88;25.08;;;103.00;1996.80;;;;;;4937828;29;20075;-69
2021/01/11 00:48:57;;;;;;;44.58;27.77;;;102.90;2022.40;;;;;;4937629;29;20031;-69
2021/01/11 00:51:23;;;;;;;55.42;31.13;;;103.20;1996.80;;;;;;4937611;29;20367;-68
2021/01/11 00:53:49;;;;;;;45.38;29.98;;;103.30;1971.20;;;;;;4937572;29;20032;-69
2021/01/11 00:56:17;;;;;;;50.38;30.33;;;102.90;2022.40;;;;;;4937975;29;20537;-68
2021/01/11 00:58:43;;;;;;;48.45;27.15;;;102.90;2022.40;;;;;;4937607;29;20028;-69
2021/01/11 01:01:10;;;;;;;49.63;28.58;;;103.00;1996.80;;;;;;4937628;29;20106;-69
2021/01/11 01:03:37;;;;;;;54.53;30.52;;;102.80;2073.60;;;;;;4943825;29;20027;-69
2021/01/11 01:06:05;;;;;;;67.72;36.17;;;102.80;2022.40;;;;;;4956576;28;20082;-69
2021/01/11 01:08:32;;;;;;;37.63;23.08;;;102.80;2048.00;;;;;;4956556;28;20039;-68
2021/01/11 01:10:57;;;;;;;52.28;28.85;;;77.70;2124.80;;;;;;4956481;28;20106;-69
2021/01/11 01:13:23;;;;;;;44.58;28.83;;;102.50;2099.20;;;;;;4956586;28;20058;-69
2021/01/11 01:15:49;;;;;;;40.97;25.45;;;77.70;2176.00;;;;;;4956175;28;20386;-70
2021/01/11 01:18:15;;;;;;;42.10;26.38;;;77.50;2176.00;;;;;;4941025;28;20035;-68
2021/01/11 01:20:40;;;;;;;37.40;23.70;;;102.60;2099.20;;;;;;4937103;29;20382;-69
2021/01/11 01:23:06;;;;;;;34.67;22.65;;;77.60;2176.00;;;;;;4937006;29;20052;-68
2021/01/11 01:25:31;;;;;;;39.78;25.17;;;77.70;2150.40;;;;;;4937049;29;20063;-70
2021/01/11 01:27:57;;;;;;;54.95;33.28;;;102.50;2124.80;;;;;;4936724;29;20043;-70
2021/01/11 01:30:23;;;;;;;47.17;34.58;;;102.80;2022.40;;;;;;4937017;29;20024;-69
2021/01/11 01:32:48;;;;;;;40.85;27.75;;;102.80;2022.40;;;;;;4936816;29;20028;-70
2021/01/11 01:35:14;;;;;;;49.78;35.15;;;102.60;2048.00;;;;;;4937055;29;20060;-70
2021/01/11 01:37:40;;;;;;;42.33;29.10;;;102.80;2022.40;;;;;;4936829;29;20047;-69
2021/01/11 01:40:07;;;;;;;37.35;23.33;;;103.00;1996.80;;;;;;4937025;29;20027;-70
2021/01/11 01:42:33;;;;;;;41.83;27.58;;;103.20;1971.20;;;;;;4936649;29;20046;-70
2021/01/11 01:44:59;;;;;;;44.42;28.70;;;102.80;2022.40;;;;;;4936769;29;20030;-69
2021/01/11 01:47:26;;;;;;;37.97;28.48;;;102.70;2048.00;;;;;;4934830;29;20130;-71
2021/01/11 01:49:51;;;;;;;41.58;27.42;;;102.80;1996.80;;;;;;4936844;29;20102;-68
2021/01/11 01:52:18;;;;;;;46.40;31.17;;;102.90;2048.00;;;;;;4936223;29;20115;-70
2021/01/11 01:54:45;;;;;;;39.90;26.95;;;103.00;1996.80;;;;;;4936501;29;20071;-68
2021/01/11 01:57:10;;;;;;;31.55;21.95;;;102.70;2048.00;;;;;;4936503;29;20115;-68
2021/01/11 01:59:36;;;;;;;43.00;28.48;;;77.60;2124.80;;;;;;4935748;29;20066;-69
2021/01/11 02:02:04;;;;;;;46.65;31.65;;;102.50;2048.00;;;;;;4935634;29;20075;-68
2021/01/11 02:04:30;;;;;;;54.08;40.40;;;102.70;2022.40;;;;;;4935893;29;20046;-70
2021/01/11 02:07:08;;;;;;;45.58;34.30;;;102.60;2048.00;;;;;;4936055;29;20106;-69
2021/01/11 02:09:47;;;;;;;35.00;25.45;;;102.80;2022.40;;;;;;4935762;29;20035;-70
2021/01/11 02:12:21;;;;;;;34.33;21.23;;;103.00;1971.20;;;;;;4935820;29;20063;-70
2021/01/11 02:15:07;;;;;;;28.90;19.38;;;103.00;1971.20;;;;;;4935816;29;20423;-68
2021/01/11 02:17:42;;;;;;;28.23;18.85;;;103.10;1945.60;;;;;;4945374;29;20057;-70
2021/01/11 02:20:23;;;;;;;28.63;19.58;;;102.80;1971.20;;;;;;4954818;28;20427;-70
2021/01/11 02:22:57;;;;;;;28.45;18.10;;;103.00;1945.60;;;;;;4954856;28;20047;-69
2021/01/11 02:25:53;;;;;;;30.10;19.40;;;102.80;1971.20;;;;;;4954598;28;20035;-70
2021/01/11 02:28:40;;;;;;;25.13;18.55;;;103.10;1945.60;;;;;;4954689;28;20071;-70
2021/01/11 02:31:06;;;;;;;29.35;19.63;;;103.30;1920.00;;;;;;4954363;28;20039;-69
2021/01/11 02:33:34;;;;;;;22.63;15.10;;;103.20;1920.00;;;;;;4948679;28;20015;-68
2021/01/11 02:36:03;;;;;;;26.67;17.90;;;102.90;1971.20;;;;;;4935444;29;20019;-69
2021/01/11 02:38:30;;;;;;;26.25;17.55;;;103.00;1945.60;;;;;;4935807;29;20035;-69
2021/01/11 02:40:56;;;;;;;27.17;17.27;;;102.80;1996.80;;;;;;4935349;29;20031;-67
2021/01/11 02:43:22;;;;;;;29.52;19.40;;;102.70;2022.40;;;;;;4935486;29;20479;-69
2021/01/11 02:45:48;;;;;;;32.25;21.55;;;102.90;1996.80;;;;;;4935165;29;20453;-66
2021/01/11 02:48:22;;;;;;;32.67;21.90;;;103.00;1945.60;;;;;;4935214;29;20044;-67
2021/01/11 02:51:02;;;;;;;30.92;21.77;;;103.00;1945.60;;;;;;4935780;29;20638;-67
2021/01/11 02:53:45;;;;;;;36.42;23.55;;;102.60;2048.00;;;;;;4935342;29;20040;-66
2021/01/11 02:56:19;;;;;;;36.10;24.40;;;77.60;2150.40;;;;;;4935017;29;20538;-67
2021/01/11 02:59:16;;;;;;;34.42;22.80;;;77.70;2099.20;;;;;;4935349;29;20023;-69
2021/01/11 03:01:54;;;;;;;44.75;32.03;;;102.50;2048.00;;;;;;4931590;29;20036;-69
2021/01/11 03:04:22;;;;;;;68.50;46.13;;;102.80;1996.80;;;;;;4934954;29;20031;-68
2021/01/11 03:06:56;;;;;;;36.45;26.35;;;102.60;2022.40;;;;;;4935061;29;20020;-69
2021/01/11 03:09:22;;;;;;;34.75;24.70;;;77.60;2099.20;;;;;;4935201;29;20376;-68
2021/01/11 03:11:48;;;;;;;41.28;29.48;;;102.60;2048.00;;;;;;4935111;29;20475;-69
2021/01/11 03:14:14;;;;;;;41.88;30.38;;;102.70;1996.80;;;;;;4934874;29;20034;-69
2021/01/11 03:16:40;;;;;;;32.25;25.30;;;103.10;1971.20;;;;;;4936852;29;20020;-70
2021/01/11 03:19:05;;;;;;;29.50;20.63;;;103.10;1945.60;;;;;;4954300;28;20098;-69
2021/01/11 03:21:37;;;;;;;29.42;19.65;;;102.80;1996.80;;;;;;4954060;28;20039;-69
2021/01/11 03:24:04;;;;;;;36.58;25.23;;;77.70;2099.20;;;;;;4953712;28;20146;-69
2021/01/11 03:26:29;;;;;;;55.95;36.85;;;77.60;2099.20;;;;;;4953930;28;20031;-70
2021/01/11 03:28:55;;;;;;;49.90;32.22;;;102.40;2073.60;;;;;;4953998;28;20031;-70
2021/01/11 03:31:21;;;;;;;68.70;47.78;;;102.40;2048.00;;;;;;4953918;28;20382;-69
2021/01/11 03:33:48;;;;;;;198.10;129.45;;;102.40;2048.00;;;;;;4945962;28;20026;-70
2021/01/11 03:36:14;;;;;;;73.35;50.85;;;102.50;2022.40;;;;;;4934735;29;20678;-70
2021/01/11 03:38:40;;;;;;;49.28;34.53;;;102.60;2022.40;;;;;;4934784;29;20051;-69
2021/01/11 03:41:07;;;;;;;67.78;46.38;;;102.60;2048.00;;;;;;4934836;29;20074;-69
2021/01/11 03:43:33;;;;;;;42.88;32.15;;;77.60;2073.60;;;;;;4934642;29;20051;-70
2021/01/11 03:45:58;;;;;;;35.70;23.90;;;102.40;2022.40;;;;;;4935016;29;20032;-69
2021/01/11 03:48:24;;;;;;;27.83;18.48;;;102.60;2022.40;;;;;;4933264;29;20399;-70
2021/01/11 03:50:50;;;;;;;35.10;25.40;;;77.70;2048.00;;;;;;4935274;29;20028;-71
2021/01/11 03:53:16;;;;;;;27.67;19.70;;;102.40;2022.40;;;;;;4934717;29;20450;-71
2021/01/11 03:55:42;;;;;;;31.38;23.23;;;102.40;1996.80;;;;;;4935265;29;20035;-70
2021/01/11 03:58:08;;;;;;;26.70;18.55;;;102.70;1971.20;;;;;;4934835;29;20032;-70
2021/01/11 04:00:35;;;;;;;27.95;19.77;;;77.60;2048.00;;;;;;4934921;29;20172;-71
2021/01/11 04:03:04;;;;;;;27.83;20.92;;;102.40;2048.00;;;;;;4934924;29;20024;-69
2021/01/11 04:05:30;;;;;;;27.33;18.35;;;102.70;1971.20;;;;;;4934711;29;20032;-68
2021/01/11 04:07:56;;;;;;;29.55;20.08;;;77.70;2048.00;;;;;;4934920;29;20092;-68
2021/01/11 04:10:23;;;;;;;38.72;28.77;;;102.50;2022.40;;;;;;4934706;29;20486;-68
2021/01/11 04:12:49;;;;;;;29.55;20.00;;;102.80;1971.20;;;;;;4934891;29;20490;-67
2021/01/11 04:15:15;;;;;;;30.25;22.10;;;102.70;1971.20;;;;;;4934696;29;20027;-70
2021/01/11 04:17:41;;;;;;;31.40;20.63;;;102.80;1920.00;;;;;;4944878;29;20023;-68
2021/01/11 04:20:08;;;;;;;30.17;21.67;;;102.80;1920.00;;;;;;4953782;28;20038;-68
2021/01/11 04:22:33;;;;;;;37.00;26.95;;;102.80;1920.00;;;;;;4953813;28;20043;-70
2021/01/11 04:24:59;;;;;;;42.22;32.78;;;102.50;1996.80;;;;;;4954131;28;20035;-69
2021/01/11 04:27:25;;;;;;;35.50;26.48;;;102.70;1945.60;;;;;;4957390;28;20031;-69
2021/01/11 04:29:50;;;;;;;33.80;25.05;;;102.80;1920.00;;;;;;4957425;28;20382;-69
2021/01/11 04:32:16;;;;;;;35.13;22.17;;;102.60;1945.60;;;;;;4957113;28;20026;-69
2021/01/11 04:34:42;;;;;;;36.53;23.80;;;102.40;1996.80;;;;;;4941978;28;20478;-68
2021/01/11 04:37:08;;;;;;;42.50;26.08;;;102.50;1996.80;;;;;;4937865;29;20024;-69
2021/01/11 04:39:34;;;;;;;42.25;25.15;;;102.40;2022.40;;;;;;4938347;29;20024;-68
2021/01/11 04:42:09;;;;;;;43.13;26.13;;;77.70;2022.40;;;;;;4937974;29;20483;-67
2021/01/11 04:44:36;;;;;;;38.80;25.50;;;102.60;1996.80;;;;;;4938057;29;20024;-68
2021/01/11 04:47:02;;;;;;;30.73;21.70;;;77.70;2048.00;;;;;;4937300;29;20079;-68
2021/01/11 04:49:29;;;;;;;43.10;30.27;;;77.60;2022.40;;;;;;4937570;29;20035;-68
2021/01/11 04:51:55;;;;;;;37.00;23.75;;;77.70;2022.40;;;;;;4938059;29;20422;-69
2021/01/11 04:54:22;;;;;;;43.95;28.60;;;77.60;2048.00;;;;;;4937608;29;20036;-70
2021/01/11 04:56:49;;;;;;;44.20;27.23;;;77.70;2022.40;;;;;;4937801;29;20024;-70
2021/01/11 04:59:19;;;;;;;52.55;34.08;;;102.40;2022.40;;;;;;4937487;29;20035;-70
2021/01/11 05:01:49;;;;;;;51.47;32.30;;;102.50;1996.80;;;;;;4937953;29;20111;-68
2021/01/11 05:04:15;;;;;;;60.13;39.15;;;102.40;2022.40;;;;;;4937355;29;20028;-67
2021/01/11 05:06:46;;;;;;;50.80;30.50;;;102.40;2022.40;;;;;;4937221;29;20024;-68
2021/01/11 05:09:15;;;;;;;49.65;28.27;;;102.50;1996.80;;;;;;4937487;29;20442;-68
2021/01/11 05:11:41;;;;;;;43.65;28.30;;;102.60;1971.20;;;;;;4937240;29;20107;-68
2021/01/11 05:14:08;;;;;;;41.35;26.17;;;102.70;1945.60;;;;;;4937550;29;20028;-68
2021/01/11 05:16:34;;;;;;;41.67;27.10;;;102.50;1971.20;;;;;;4937998;29;20031;-69
2021/01/11 05:19:26;;;;;;;41.22;29.02;;;77.60;2022.40;;;;;;4956547;28;20068;-68
2021/01/11 05:21:52;;;;;;;43.60;28.10;;;77.70;2022.40;;;;;;4955361;28;20035;-69
2021/01/11 05:24:36;;;;;;;38.53;25.10;;;102.60;1945.60;;;;;;4955896;28;20055;-68
2021/01/11 05:27:04;;;;;;;38.47;25.52;;;77.70;1945.60;;;;;;4956273;28;20027;-69
2021/01/11 05:29:30;;;;;;;36.45;24.23;;;102.50;1945.60;;;;;;4956200;28;20042;-69
2021/01/11 05:32:01;;;;;;;41.25;28.90;;;102.40;1945.60;;;;;;4956110;28;20051;-69
2021/01/11 05:34:50;;;;;;;40.63;25.90;;;102.60;1920.00;;;;;;4942811;29;20553;-68
2021/01/11 05:37:37;;;;;;;37.83;25.08;;;102.70;1894.40;;;;;;4935778;29;20038;-68
2021/01/11 05:40:10;;;;;;;52.85;32.13;;;102.40;1920.00;;;;;;4936691;29;20538;-66
2021/01/11 05:42:38;;;;;;;48.00;30.33;;;102.80;1894.40;;;;;;4936896;29;20032;-69
2021/01/11 05:45:10;;;;;;;54.40;31.60;;;102.60;1920.00;;;;;;4936610;29;20031;-68
2021/01/11 05:48:01;;;;;;;66.13;43.08;;;77.60;1945.60;;;;;;4936437;29;20479;-67
2021/01/11 05:50:29;;;;;;;55.67;34.33;;;102.50;1920.00;;;;;;4936722;29;20035;-69
2021/01/11 05:52:56;;;;;;;66.55;37.90;;;102.40;1920.00;;;;;;4936541;29;20042;-69
2021/01/11 05:55:27;;;;;;;59.58;39.53;;;102.60;1894.40;;;;;;4936650;29;20031;-69
2021/01/11 05:58:03;;;;;;;58.83;36.92;;;102.50;1894.40;;;;;;4936572;29;20031;-69
2021/01/11 06:00:37;;;;;;;57.20;36.50;;;102.40;1920.00;;;;;;4936566;29;20055;-69
2021/01/11 06:03:04;;;;;;;52.72;35.67;;;102.60;1894.40;;;;;;4936497;29;20115;-69
2021/01/11 06:05:31;;;;;;;66.07;40.85;;;102.70;1920.00;;;;;;4936442;29;20431;-69
2021/01/11 06:07:58;;;;;;;59.47;35.63;;;102.80;1894.40;;;;;;4936421;29;20032;-69
2021/01/11 06:10:25;;;;;;;61.17;41.03;;;102.40;1894.40;;;;;;4936226;29;20028;-68
2021/01/11 06:12:51;;;;;;;66.63;46.38;;;102.80;1894.40;;;;;;4936361;29;20083;-69
2021/01/11 06:15:19;;;;;;;68.75;39.55;;;102.70;1894.40;;;;;;4935996;29;20163;-69
2021/01/11 06:17:46;;;;;;;72.30;42.20;;;102.60;1868.80;;;;;;4945702;29;20047;-69
2021/01/11 06:20:23;;;;;;;69.00;41.85;;;102.60;1868.80;;;;;;4955407;28;20031;-70
2021/01/11 06:22:48;;;;;;;79.93;45.15;;;102.50;1894.40;;;;;;4955043;28;20398;-69
2021/01/11 06:25:17;;;;;;;79.10;47.47;;;102.60;1894.40;;;;;;4955357;28;20118;-70
2021/01/11 06:27:52;;;;;;;76.60;48.38;;;102.70;1868.80;;;;;;4954851;28;20062;-69
2021/01/11 06:30:38;;;;;;;82.03;50.05;;;102.50;1894.40;;;;;;4954919;28;20031;-69
2021/01/11 06:33:09;;;;;;;78.28;46.33;;;77.60;1996.80;;;;;;4952703;28;20455;-68
2021/01/11 06:35:50;;;;;;;76.20;46.90;;;102.50;1920.00;;;;;;4935667;29;20106;-72
2021/01/11 06:38:25;;;;;;;70.05;44.03;;;77.50;1945.60;;;;;;4935671;29;20411;-69
2021/01/11 06:41:03;;;;;;;78.60;48.70;;;77.70;1945.60;;;;;;4935909;29;20036;-69
2021/01/11 06:43:49;;;;;;;66.65;42.80;;;102.50;1894.40;;;;;;4935618;29;20106;-70
2021/01/11 06:46:30;;;;;;;68.93;42.33;;;102.50;1920.00;;;;;;4935141;29;20082;-70
2021/01/11 06:49:01;;;;;;;68.25;44.70;;;77.70;1920.00;;;;;;4916293;29;20051;-70
2021/01/11 06:51:32;;;;;;;76.93;44.90;;;102.40;1920.00;;;;;;4916442;29;20032;-69
2021/01/11 06:54:08;;;;;;;67.35;43.05;;;102.50;1920.00;;;;;;4916296;29;20510;-66
2021/01/11 06:56:36;;;;;;;68.00;44.05;;;102.60;1894.40;;;;;;4916696;29;20039;-67
2021/01/11 06:59:06;;;;;;;73.65;46.38;;;102.60;1920.00;;;;;;4916236;29;20020;-65
2021/01/11 07:01:37;;;;;;;60.08;39.13;;;102.60;1920.00;;;;;;4916141;29;20035;-64
2021/01/11 07:04:03;;;;;;;82.38;47.40;;;102.40;1920.00;;;;;;4916019;29;20483;-65
2021/01/11 07:06:44;;;;;;;66.95;44.15;;;102.50;1920.00;;;;;;4915823;29;20064;-69
2021/01/11 07:09:14;;;;;;;79.90;50.13;;;77.60;1945.60;;;;;;4916346;29;20043;-68
2021/01/11 07:11:43;;;;;;;79.53;51.20;;;102.50;1920.00;;;;;;4915833;29;20025;-69
2021/01/11 07:14:10;;;;;;;78.57;49.85;;;102.60;1868.80;;;;;;4916163;29;20383;-69
2021/01/11 07:16:49;;;;;;;79.65;50.15;;;77.50;1971.20;;;;;;4916878;29;20029;-67
2021/01/11 07:19:21;;;;;;;76.93;49.33;;;102.40;1920.00;;;;;;4954028;28;20027;-65
2021/01/11 07:21:47;;;;;;;86.30;53.90;;;102.60;1920.00;;;;;;4953985;28;20079;-66
2021/01/11 07:24:14;;;;;;;83.15;52.88;;;103.00;1868.80;;;;;;4953706;28;20425;-66
2021/01/11 07:26:40;;;;;;;97.35;59.67;;;103.10;1843.20;;;;;;4954103;28;20023;-66
2021/01/11 07:29:10;;;;;;;75.95;48.60;;;103.30;1843.20;;;;;;4953571;28;20031;-68
2021/01/11 07:31:37;;;;;;;80.70;51.10;;;103.00;1817.60;;;;;;4953972;28;20027;-67
2021/01/11 07:34:13;;;;;;;116.25;73.65;;;103.00;1868.80;;;;;;4943818;28;20441;-66
2021/01/11 07:36:41;;;;;;;87.88;57.15;;;103.20;1843.20;;;;;;4934552;29;20024;-67
2021/01/11 07:39:25;;;;;;;71.10;46.78;;;103.30;1843.20;;;;;;4934793;29;20024;-68
2021/01/11 07:41:54;;;;;;;78.85;46.47;;;103.20;1817.60;;;;;;4934489;29;20016;-67
2021/01/11 07:44:20;;;;;;;83.35;53.45;;;103.30;1792.00;;;;;;4934539;29;20069;-69
2021/01/11 07:47:02;;;;;;;88.18;57.03;;;128.30;1792.00;;;;;;4934555;29;20048;-69
2021/01/11 07:49:31;;;;;;;96.07;61.63;;;128.20;1792.00;;;;;;4934908;29;20046;-69
2021/01/11 07:52:22;;;;;;;83.20;55.92;;;128.30;1792.00;;;;;;4933427;29;20039;-69
2021/01/11 07:54:58;;;;;;;80.18;50.00;;;128.40;1792.00;;;;;;4935151;29;20091;-69
2021/01/11 07:57:28;;;;;;;78.05;46.78;;;128.00;1792.00;;;;;;4934770;29;20020;-66
2021/01/11 08:00:04;;;;;;;87.35;52.97;;;103.30;1792.00;;;;;;4934243;29;20487;-67
2021/01/11 08:02:31;;;;;;;100.78;61.08;;;128.10;1817.60;;;;;;4938399;29;20028;-67
2021/01/11 08:04:56;;;;;;;99.93;61.45;;;128.00;1817.60;;;;;;4938182;29;20034;-67
2021/01/11 08:07:29;;;;;;;91.50;55.03;;;103.20;1817.60;;;;;;4938236;29;20035;-67
2021/01/11 08:09:56;;;;;;;119.25;79.70;;;102.80;1843.20;;;;;;4937995;29;20038;-67
2021/01/11 08:12:22;;;;;;;96.47;68.70;;;102.60;1868.80;;;;;;4938176;29;20035;-67
2021/01/11 08:14:51;;;;;;;89.80;59.30;;;102.80;1843.20;;;;;;4938031;29;20035;-66
2021/01/11 08:17:21;;;;;;;96.30;61.35;;;103.00;1843.20;;;;;;4949227;29;20074;-66
2021/01/11 08:19:55;;;;;;;108.53;64.57;;;103.10;1843.20;;;;;;4938117;29;20394;-67
2021/01/11 08:22:21;;;;;;;79.30;50.78;;;128.00;1843.20;;;;;;4937518;29;20600;-66
2021/01/11 08:24:58;;;;;;;92.75;60.13;;;128.00;1817.60;;;;;;4937906;29;20051;-66
2021/01/11 08:27:40;;;;;;;96.45;61.20;;;103.30;1792.00;;;;;;4937597;29;20099;-67
2021/01/11 08:30:08;;;;;;;81.03;50.05;;;103.20;1792.00;;;;;;4937433;29;20032;-67
2021/01/11 08:32:35;;;;;;;74.32;49.97;;;102.80;1843.20;;;;;;4937594;29;20037;-70
2021/01/11 08:35:07;;;;;;;71.70;46.00;;;102.50;1894.40;;;;;;4937415;29;20027;-68
2021/01/11 08:37:33;;;;;;;62.72;41.50;;;77.70;1920.00;;;;;;4937684;29;20039;-68
2021/01/11 08:40:02;;;;;;;76.80;50.42;;;102.80;1868.80;;;;;;4937404;29;20028;-68
2021/01/11 08:42:29;;;;;;;84.18;59.13;;;103.00;1843.20;;;;;;4937739;29;20063;-68
2021/01/11 08:45:15;;;;;;;62.58;42.63;;;103.00;1843.20;;;;;;4937138;29;20032;-70
2021/01/11 08:47:41;;;;;;;68.28;44.40;;;102.80;1843.20;;;;;;4937030;29;20526;-65
2021/01/11 08:50:07;;;;;;;76.07;53.03;;;103.10;1817.60;;;;;;4937440;29;20115;-69
2021/01/11 08:52:34;;;;;;;101.47;66.55;;;;;;;;;;4937351;29;20087;-66
2021/01/11 08:55:10;;;;;;;132.25;77.63;;;128.20;1843.20;;;;;;4937702;29;20028;-66
2021/01/11 08:57:36;;;;;;;125.18;70.60;;;128.10;1817.60;;;;;;4937521;29;20115;-70
2021/01/11 09:00:12;;;;;;;111.63;63.63;;;128.40;1817.60;;;;;;4937268;29;20098;-66
2021/01/11 09:02:45;;;;;;;92.07;56.75;;;128.60;1792.00;;;;;;4937089;29;20038;-66
2021/01/11 09:05:13;;;;;;;105.90;62.50;;;128.70;1766.40;;;;;;4934767;29;20503;-67
2021/01/11 09:07:39;;;;;;;92.07;56.83;;;128.40;1792.00;;;;;;4934596;29;20030;-69
2021/01/11 09:10:22;;;;;;;82.28;51.05;;;128.60;1766.40;;;;;;4937061;29;20020;-67
2021/01/11 09:12:48;;;;;;;67.85;43.80;;;128.00;1817.60;;;;;;4936392;29;20059;-69
2021/01/11 09:15:22;;;;;;;70.55;45.63;;;103.00;1843.20;;;;;;4936720;29;20078;-69
2021/01/11 09:18:04;;;;;;;56.50;37.53;;;128.00;1817.60;;;;;;4938803;29;20049;-69
2021/01/11 09:20:30;;;;;;;78.43;53.47;;;128.00;1792.00;;;;;;4935843;29;20331;-71
2021/01/11 09:22:57;;;;;;;70.40;44.83;;;103.20;1843.20;;;;;;4936572;29;20050;-69
2021/01/11 09:25:23;;;;;;;74.22;48.28;;;103.30;1792.00;;;;;;4936613;29;20167;-68
2021/01/11 09:27:49;;;;;;;61.60;39.60;;;103.00;1868.80;;;;;;4936793;29;20032;-69
2021/01/11 09:30:16;;;;;;;64.80;41.13;;;102.80;1868.80;;;;;;4936789;29;20486;-69
2021/01/11 09:32:44;;;;;;;77.63;49.40;;;103.10;1843.20;;;;;;4932176;29;20044;-69
2021/01/11 09:35:12;;;;;;;75.85;48.22;;;103.00;1868.80;;;;;;4936426;29;20028;-69
2021/01/11 09:37:38;;;;;;;155.60;98.88;;;102.80;1894.40;;;;;;4936894;29;20035;-69
2021/01/11 09:40:04;;;;;;;100.07;66.57;;;103.10;1843.20;;;;;;4936773;29;20036;-70
2021/01/11 09:42:30;;;;;;;77.18;50.03;;;102.80;1894.40;;;;;;4936326;29;20032;-69
2021/01/11 09:44:56;;;;;;;90.53;61.33;;;102.50;1945.60;;;;;;4936849;29;20513;-69
2021/01/11 09:47:22;;;;;;;125.57;82.18;;;102.50;1945.60;;;;;;4940967;29;20023;-69
2021/01/11 09:49:48;;;;;;;86.30;51.67;;;102.50;1945.60;;;;;;4955705;28;20030;-68
2021/01/11 09:52:14;;;;;;;73.20;44.83;;;102.60;1945.60;;;;;;4955352;28;20031;-68
2021/01/11 09:54:40;;;;;;;75.97;49.05;;;102.60;1920.00;;;;;;4955983;28;20039;-68
2021/01/11 09:57:10;;;;;;;94.25;57.97;;;102.40;1945.60;;;;;;4955384;28;20106;-69
2021/01/11 09:59:38;;;;;;;73.82;45.65;;;102.60;1945.60;;;;;;4955638;28;20513;-69
2021/01/11 10:02:05;;;;;;;264.65;162.55;;;102.60;1920.00;;;;;;4955044;28;20034;-69
2021/01/11 10:04:30;;;;;;;99.00;57.10;;;102.60;1920.00;;;;;;4954946;28;20107;-69
2021/01/11 10:06:57;;;;;;;82.70;56.50;;;102.60;1894.40;;;;;;4955407;28;20102;-69
2021/01/11 10:09:25;;;;;;;72.78;46.85;;;102.70;1894.40;;;;;;4955216;28;20035;-68
2021/01/11 10:11:53;;;;;;;99.18;67.43;;;102.70;1894.40;;;;;;4955418;28;20016;-69
2021/01/11 10:14:19;;;;;;;108.07;76.15;;;103.20;1868.80;;;;;;4955249;28;20023;-68
2021/01/11 10:16:46;;;;;;;69.38;46.75;;;128.30;1843.20;;;;;;4954977;28;20019;-69
2021/01/11 10:19:20;;;;;;;78.53;48.78;;;128.00;1817.60;;;;;;4955009;28;20147;-69
2021/01/11 10:21:46;;;;;;;102.13;73.70;;;103.10;1868.80;;;;;;4954825;28;20034;-68
2021/01/11 10:24:13;;;;;;;100.07;66.30;;;128.20;1817.60;;;;;;4954476;28;20414;-68
2021/01/11 10:26:47;;;;;;;77.95;50.40;;;128.10;1843.20;;;;;;4954897;28;20038;-69
2021/01/11 10:29:17;;;;;;;78.10;47.13;;;128.40;1792.00;;;;;;4955259;28;20043;-68
2021/01/11 10:31:47;;;;;;;91.13;58.38;;;128.90;1740.80;;;;;;4954997;28;20379;-69
2021/01/11 10:34:15;;;;;;;84.43;54.97;;;153.90;1740.80;;;;;;4943233;28;20122;-69
2021/01/11 10:36:44;;;;;;;69.55;43.42;;;153.90;1689.60;;;;;;4935483;29;20024;-69
2021/01/11 10:39:11;;;;;;;71.97;49.70;;;128.80;1740.80;;;;;;4935398;29;20383;-69
2021/01/11 10:41:37;;;;;;;65.32;42.00;;;153.60;1715.20;;;;;;4935859;29;20023;-69
2021/01/11 10:44:05;;;;;;;63.40;40.60;;;128.30;1792.00;;;;;;4935374;29;20028;-69
2021/01/11 10:46:31;;;;;;;79.93;48.72;;;128.00;1817.60;;;;;;4934289;29;20024;-69
2021/01/11 10:48:57;;;;;;;81.13;50.30;;;128.10;1817.60;;;;;;4934950;29;20040;-68
2021/01/11 10:51:23;;;;;;;94.10;59.20;;;128.50;1792.00;;;;;;4935569;29;20030;-69
2021/01/11 10:53:49;;;;;;;84.93;53.38;;;153.60;1740.80;;;;;;4935642;29;20111;-70
2021/01/11 10:56:16;;;;;;;80.45;54.78;;;153.80;1740.80;;;;;;4935511;29;20083;-69
2021/01/11 10:58:42;;;;;;;133.38;109.68;;;128.80;1740.80;;;;;;4935074;29;20028;-69
2021/01/11 11:01:10;;;;;;;69.05;42.75;;;153.80;1740.80;;;;;;4935157;29;20055;-68
2021/01/11 11:03:36;;;;;;;71.60;47.13;;;128.40;1766.40;;;;;;4935331;29;20032;-68
2021/01/11 11:06:02;;;;;;;100.18;60.80;;;128.70;1766.40;;;;;;4935162;29;20028;-69
2021/01/11 11:08:27;;;;;;;77.18;46.90;;;128.80;1766.40;;;;;;4934314;29;20039;-69
2021/01/11 11:10:53;;;;;;;76.55;47.22;;;153.70;1715.20;;;;;;4934716;29;20023;-71
2021/01/11 11:13:19;;;;;;;93.65;60.13;;;128.40;1766.40;;;;;;4933760;29;20035;-69
2021/01/11 11:15:46;;;;;;;82.07;56.80;;;128.30;1817.60;;;;;;4934810;29;20071;-69
2021/01/11 11:18:12;;;;;;;103.40;68.90;;;128.70;1766.40;;;;;;4947109;29;20498;-68
2021/01/11 11:20:38;;;;;;;108.10;71.45;;;;;;;;;;4954116;28;20019;-70
2021/01/11 11:23:04;;;;;;;101.70;63.50;;;154.00;1715.20;;;;;;4954141;29;20134;-69
2021/01/11 11:25:30;;;;;;;87.53;56.83;;;153.90;1715.20;;;;;;4953970;28;20040;-69
2021/01/11 11:27:56;;;;;;;86.18;58.20;;;153.70;1740.80;;;;;;4954146;28;20110;-69
2021/01/11 11:30:22;;;;;;;75.18;53.00;;;128.90;1766.40;;;;;;4953084;29;20066;-69
2021/01/11 11:32:49;;;;;;;86.72;53.50;;;153.80;1740.80;;;;;;4953607;28;20028;-69
2021/01/11 11:35:16;;;;;;;68.68;45.25;;;154.10;1715.20;;;;;;4936012;29;20051;-69
2021/01/11 11:37:42;;;;;;;69.22;44.63;;;128.90;1715.20;;;;;;4938608;29;20032;-69
2021/01/11 11:40:10;;;;;;;71.03;48.00;;;128.40;1766.40;;;;;;4938713;29;20019;-69
2021/01/11 11:42:37;;;;;;;107.88;74.05;;;128.90;1740.80;;;;;;4938670;29;20075;-69
2021/01/11 11:45:05;;;;;;;75.28;47.90;;;153.90;1715.20;;;;;;4938878;29;20024;-69
2021/01/11 11:47:32;;;;;;;79.60;50.85;;;153.60;1715.20;;;;;;4938330;29;20028;-69
2021/01/11 11:49:58;;;;;;;77.70;49.05;;;128.80;1740.80;;;;;;4938598;29;20451;-69
2021/01/11 11:52:24;;;;;;;71.72;47.70;;;128.40;1792.00;;;;;;4938718;29;20042;-69
2021/01/11 11:54:50;;;;;;;64.97;40.88;;;128.80;1740.80;;;;;;4938363;29;20028;-70
2021/01/11 11:57:15;;;;;;;81.32;52.63;;;153.60;1689.60;;;;;;4939020;29;20103;-69
2021/01/11 11:59:41;;;;;;;76.55;48.40;;;153.80;1689.60;;;;;;4938447;29;20035;-69
2021/01/11 12:02:12;;;;;;;84.18;54.85;;;128.90;1740.80;;;;;;4938361;29;20467;-69
2021/01/11 12:04:38;;;;;;;73.10;48.45;;;153.80;1715.20;;;;;;4938275;29;20506;-69
2021/01/11 12:07:03;;;;;;;60.88;40.97;;;153.90;1689.60;;;;;;4938506;29;20036;-69
2021/01/11 12:09:29;;;;;;;74.10;47.83;;;128.80;1715.20;;;;;;4936961;29;20056;-69